Time;durP1;ratioP1;P1;durP2;ratioP2;P2;SDS_P1;SDS_P2;PMS_P1;PMS_P2;Temp;Humidity;BMP_temperature;BMP_pressure;BME280_temperature;BME280_humidity;BME280_pressure;Samples;Min_cycle;Max_cycle;Signal;HPM_P1;HPM_P2
2022/09/07 20:19:05;;;;;;;11.55;9.10;;;;;;;23.09;58.29;98864.16;5164153;27;20549;-71
2022/09/07 20:21:35;;;;;;;12.35;10.00;;;;;;;23.12;58.41;98864.66;5143552;28;20047;-71
2022/09/07 20:24:04;;;;;;;11.55;9.63;;;;;;;23.21;58.66;98858.19;5124949;28;20048;-71
2022/09/07 20:26:32;;;;;;;11.25;10.05;;;;;;;23.22;59.22;98861.72;5143193;28;20066;-71
2022/09/07 20:28:59;;;;;;;10.68;9.63;;;;;;;23.29;59.00;98860.03;5143489;28;20052;-70
2022/09/07 20:31:27;;;;;;;10.43;9.43;;;;;;;23.33;59.50;98864.91;5142742;28;20062;-72
2022/09/07 20:33:54;;;;;;;11.18;8.85;;;;;;;23.36;59.46;98859.13;5142870;28;20059;-72
2022/09/07 20:36:23;;;;;;;14.52;9.77;;;;;;;23.41;59.40;98861.31;5143253;28;20055;-72
2022/09/07 20:38:52;;;;;;;11.25;10.00;;;;;;;22.54;59.71;98732.69;5142450;28;20051;-72
2022/09/07 20:41:21;;;;;;;10.88;9.77;;;;;;;23.41;59.94;98857.75;5143186;28;20051;-72
2022/09/07 20:43:50;;;;;;;8.90;7.95;;;;;;;23.31;59.62;98833.66;5143137;28;20330;-70
2022/09/07 20:46:18;;;;;;;9.32;8.23;;;;;;;23.36;60.08;98852.88;5142792;28;20066;-70
2022/09/07 20:48:46;;;;;;;9.13;7.60;;;;;;;23.35;60.13;98854.75;5142919;28;20051;-71
2022/09/07 20:51:15;;;;;;;9.15;6.55;;;;;;;23.31;60.29;98852.59;5142704;28;20063;-70
2022/09/07 20:53:43;;;;;;;9.20;8.13;;;;;;;23.03;60.21;98807.09;5143038;28;20062;-70
2022/09/07 20:56:13;;;;;;;7.03;6.32;;;;;;;23.31;59.90;98855.28;5142952;28;20066;-70
2022/09/07 20:58:42;;;;;;;8.27;7.03;;;;;;;23.30;59.99;98848.19;5142782;28;20043;-71
2022/09/07 21:01:10;;;;;;;7.22;6.47;;;;;;;23.26;59.98;98857.66;5142743;28;20055;-70
2022/09/07 21:03:37;;;;;;;7.68;6.95;;;;;;;23.28;59.76;98851.06;5142623;28;20062;-70
2022/09/07 21:06:07;;;;;;;8.77;6.60;;;;;;;23.25;59.99;98850.56;5142562;28;20193;-71
2022/09/07 21:08:35;;;;;;;6.72;6.13;;;;;;;23.22;60.31;98849.06;5142324;28;20047;-71
2022/09/07 21:11:09;;;;;;;7.28;6.53;;;;;;;23.28;59.43;98840.25;5142605;28;20055;-70
2022/09/07 21:13:37;;;;;;;8.80;5.97;;;;;;;23.21;59.64;98833.84;5142651;28;20059;-70
2022/09/07 21:16:07;;;;;;;7.05;6.05;;;;;;;23.19;59.69;98837.75;5142521;28;20066;-70
2022/09/07 21:18:36;;;;;;;7.43;6.50;;;;;;;23.15;59.42;98837.25;5141949;28;20051;-71
2022/09/07 21:21:04;;;;;;;6.63;5.90;;;;;;;23.15;59.47;98837.25;5142129;28;20223;-71
2022/09/07 21:23:35;;;;;;;7.18;6.55;;;;;;;23.15;59.22;98834.56;5142342;28;20078;-70
2022/09/07 21:26:04;;;;;;;8.30;6.55;;;;;;;23.13;59.11;98842.00;5142471;28;20039;-70
2022/09/07 21:28:33;;;;;;;7.38;6.68;;;;;;;23.16;59.16;98828.13;5139307;28;20055;-70
2022/09/07 21:31:03;;;;;;;7.47;6.50;;;;;;;23.07;59.03;98828.34;5128562;28;20051;-70
2022/09/07 21:33:33;;;;;;;8.38;6.47;;;;;;;23.03;58.98;98814.34;5128766;28;20109;-70
2022/09/07 21:36:03;;;;;;;6.00;5.40;;;;;;;23.11;58.77;98819.72;5128515;28;20063;-71
2022/09/07 21:38:31;;;;;;;7.90;6.68;;;;;;;22.91;58.76;98799.56;5128297;28;20055;-71
2022/09/07 21:40:58;;;;;;;8.13;6.43;;;;;;;23.00;59.28;98828.22;5128459;28;20051;-71
2022/09/07 21:43:25;;;;;;;7.30;6.60;;;;;;;23.02;59.04;98820.78;5128083;28;20055;-71
2022/09/07 21:45:54;;;;;;;6.68;5.93;;;;;;;23.06;58.79;98819.41;5128013;28;20153;-71
2022/09/07 21:48:22;;;;;;;7.05;6.10;;;;;;;22.68;58.65;98754.41;5128761;28;20091;-71
2022/09/07 21:50:56;;;;;;;7.82;6.40;;;;;;;23.05;58.27;98818.56;5127846;28;20063;-71
2022/09/07 21:53:24;;;;;;;6.05;5.25;;;;;;;22.94;58.71;98816.25;5128234;28;20055;-71
2022/09/07 21:55:55;;;;;;;8.82;6.85;;;;;;;22.93;58.54;98808.31;5127923;28;20062;-71
2022/09/07 21:58:22;;;;;;;7.10;6.47;;;;;;;22.90;58.94;98814.09;5127954;28;20143;-71
2022/09/07 22:00:49;;;;;;;11.05;6.50;;;;;;;22.91;58.83;98804.97;5127551;28;20062;-71
2022/09/07 22:03:18;;;;;;;7.43;6.72;;;;;;;22.91;58.49;98795.00;5127790;28;20070;-71
2022/09/07 22:05:45;;;;;;;7.50;5.95;;;;;;;21.87;58.78;98635.91;5127704;28;20056;-71
2022/09/07 22:08:13;;;;;;;7.90;6.18;;;;;;;22.63;58.56;98774.88;5127497;28;20062;-71
2022/09/07 22:10:41;;;;;;;8.25;6.00;;;;;;;22.65;58.60;98797.97;5127633;28;20055;-71
2022/09/07 22:13:09;;;;;;;6.28;5.47;;;;;;;22.33;58.95;98765.63;5127560;28;20055;-70
2022/09/07 22:15:38;;;;;;;7.15;5.93;;;;;;;22.61;58.80;98806.59;5127548;28;20056;-71
2022/09/07 22:18:07;;;;;;;5.90;5.30;;;;;;;22.45;58.95;98783.19;5105945;28;20067;-71
2022/09/07 22:20:36;;;;;;;6.38;5.57;;;;;;;22.60;58.97;98799.53;5107185;28;20056;-71
2022/09/07 22:23:05;;;;;;;5.18;4.68;;;;;;;22.44;59.04;98810.34;5107183;28;20063;-72
2022/09/07 22:25:33;;;;;;;7.00;5.28;;;;;;;22.36;59.00;98771.53;5106941;28;20074;-72
2022/09/07 22:28:01;;;;;;;6.53;5.78;;;;;;;22.47;59.15;98804.59;5107214;28;20067;-71
2022/09/07 22:30:28;;;;;;;6.65;5.55;;;;;;;22.49;58.70;98798.00;5106684;28;20102;-72
2022/09/07 22:32:55;;;;;;;7.53;5.50;;;;;;;22.41;59.05;98792.63;5106127;28;20063;-71
2022/09/07 22:35:24;;;;;;;7.00;6.30;;;;;;;22.41;59.05;98792.63;5106617;28;20079;-71
2022/09/07 22:37:52;;;;;;;7.97;6.20;;;;;;;22.25;59.37;98795.34;5105559;28;20048;-71
2022/09/07 22:40:20;;;;;;;7.80;5.50;;;;;;;22.17;59.90;98790.81;5106241;28;20262;-71
2022/09/07 22:42:47;;;;;;;7.68;6.13;;;;;;;21.73;60.31;98784.94;5106665;28;20056;-71
2022/09/07 22:45:14;;;;;;;7.43;6.50;;;;;;;22.07;60.32;98787.47;5106106;28;20056;-71
2022/09/07 22:47:42;;;;;;;9.82;6.15;;;;;;;22.10;60.35;98785.25;5106805;28;20369;-71
2022/09/07 22:50:10;;;;;;;7.13;6.38;;;;;;;22.13;60.26;98783.22;5106707;28;20051;-71
2022/09/07 22:52:37;;;;;;;10.60;6.18;;;;;;;22.13;60.34;98783.22;5106169;28;20339;-71
2022/09/07 22:55:07;;;;;;;14.40;6.05;;;;;;;22.14;60.17;98779.50;5106529;28;20117;-71
2022/09/07 22:57:34;;;;;;;9.20;7.57;;;;;;;22.12;60.15;98778.84;5106496;28;20057;-71
2022/09/07 23:00:02;;;;;;;6.78;6.05;;;;;;;22.13;60.12;98775.13;5106294;28;20052;-71
2022/09/07 23:02:29;;;;;;;7.35;6.65;;;;;;;22.13;60.15;98770.56;5106583;28;20055;-71
2022/09/07 23:04:57;;;;;;;8.25;6.10;;;;;;;21.98;60.76;98775.84;5106347;28;20060;-71
2022/09/07 23:07:24;;;;;;;7.78;6.97;;;;;;;21.91;60.74;98764.03;5106381;28;20052;-71
2022/09/07 23:09:51;;;;;;;7.10;6.18;;;;;;;21.81;60.96;98763.38;5106017;28;20097;-71
2022/09/07 23:12:20;;;;;;;7.32;6.28;;;;;;;21.82;61.16;98762.38;5106293;28;20055;-71
2022/09/07 23:14:47;;;;;;;7.70;6.88;;;;;;;21.85;60.90;98743.16;5105138;28;20055;-72
2022/09/07 23:17:15;;;;;;;7.22;6.30;;;;;;;21.72;61.44;98740.94;5105022;28;20105;-71
2022/09/07 23:19:42;;;;;;;7.28;6.35;;;;;;;21.69;61.50;98735.03;5105946;28;20106;-71
2022/09/07 23:22:10;;;;;;;7.18;6.30;;;;;;;21.21;61.14;98642.41;5106010;28;20056;-71
2022/09/07 23:24:40;;;;;;;8.00;7.28;;;;;;;21.78;61.07;98728.63;5105848;28;20055;-71
2022/09/07 23:27:07;;;;;;;7.18;6.28;;;;;;;21.81;60.57;98724.78;5106049;28;20185;-71
2022/09/07 23:29:35;;;;;;;7.53;6.53;;;;;;;21.71;60.96;98717.69;5105914;28;20052;-71
2022/09/07 23:32:03;;;;;;;8.02;6.68;;;;;;;21.74;60.78;98719.19;5105787;28;20056;-71
2022/09/07 23:34:30;;;;;;;7.82;6.88;;;;;;;21.75;60.42;98708.22;5105756;28;20097;-71
2022/09/07 23:36:57;;;;;;;7.05;6.10;;;;;;;21.72;60.78;98705.88;5105466;28;20117;-71
2022/09/07 23:39:26;;;;;;;6.18;5.57;;;;;;;21.70;60.65;98701.66;5105733;28;20056;-71
2022/09/07 23:41:53;;;;;;;7.18;5.53;;;;;;;21.74;60.09;98711.09;5106380;28;20086;-70
2022/09/07 23:44:20;;;;;;;6.78;5.63;;;;;;;21.78;60.01;98701.66;5105457;28;20176;-70
2022/09/07 23:46:49;;;;;;;8.98;6.38;;;;;;;21.76;60.19;98703.69;5105326;28;20060;-71
2022/09/07 23:49:16;;;;;;;9.57;6.10;;;;;;;21.46;60.39;98667.50;5105491;28;20048;-71
2022/09/07 23:51:43;;;;;;;6.82;5.65;;;;;;;21.68;60.19;98701.00;5105511;28;20335;-71
2022/09/07 23:54:11;;;;;;;7.65;5.85;;;;;;;21.71;59.70;98698.81;5105482;28;20113;-71
2022/09/07 23:56:38;;;;;;;6.78;5.93;;;;;;;21.73;60.01;98688.69;5105544;28;20063;-71
2022/09/07 23:59:05;;;;;;;8.93;6.05;;;;;;;21.73;60.13;98687.84;5105371;28;20101;-70
